Time;durP1;ratioP1;P1;durP2;ratioP2;P2;SDS_P1;SDS_P2;PMS_P1;PMS_P2;Temp;Humidity;BMP_temperature;BMP_pressure;BME280_temperature;BME280_humidity;BME280_pressure;Samples;Min_cycle;Max_cycle;Signal;HPM_P1;HPM_P2
2021/11/04 00:00:16;;;;;;;;;;;6.20;94.10;;;;;;5071253;28;20415;-77
2021/11/04 00:02:42;;;;;;;;;;;6.20;94.10;;;;;;5089001;28;20274;-75
2021/11/04 00:05:08;;;;;;;;;;;6.20;94.10;;;;;;5088769;28;19927;-77
2021/11/04 00:07:34;;;;;;;;;;;6.20;94.10;;;;;;5088783;28;19916;-74
2021/11/04 00:09:59;;;;;;;;;;;6.10;94.10;;;;;;5088863;28;20033;-76
2021/11/04 00:12:25;;;;;;;;;;;6.10;94.10;;;;;;5088947;28;19908;-77
2021/11/04 00:14:51;;;;;;;;;;;6.10;94.10;;;;;;5088871;28;19961;-76
2021/11/04 00:17:17;;;;;;;;;;;6.10;94.20;;;;;;5088800;28;20264;-75
2021/11/04 00:19:43;;;;;;;;;;;6.10;94.20;;;;;;5088637;28;19908;-75
2021/11/04 00:22:08;;;;;;;;;;;6.00;94.30;;;;;;5087466;28;20006;-77
2021/11/04 00:24:34;;;;;;;;;;;6.00;94.50;;;;;;5088690;28;20045;-76
2021/11/04 00:26:59;;;;;;;;;;;6.00;94.50;;;;;;5087236;28;19914;-76
2021/11/04 00:29:25;;;;;;;;;;;6.00;94.60;;;;;;5087267;28;19955;-76
2021/11/04 00:31:51;;;;;;;;;;;6.10;94.60;;;;;;5088581;28;19917;-77
2021/11/04 00:34:17;;;;;;;;;;;6.00;94.70;;;;;;5088561;28;19908;-77
2021/11/04 00:36:44;;;;;;;;;;;6.00;94.80;;;;;;5088370;28;20202;-75
2021/11/04 00:39:09;;;;;;;;;;;6.00;94.90;;;;;;5087952;28;19947;-75
2021/11/04 00:41:35;;;;;;;;;;;6.00;94.80;;;;;;5088342;28;19959;-76
2021/11/04 00:44:02;;;;;;;;;;;6.00;94.90;;;;;;5088383;28;19908;-74
2021/11/04 00:46:31;;;;;;;;;;;6.00;95.00;;;;;;5086934;28;20396;-75
2021/11/04 00:48:57;;;;;;;;;;;6.10;95.30;;;;;;5088284;28;19948;-76
2021/11/04 00:51:22;;;;;;;;;;;6.10;95.30;;;;;;5088334;28;19947;-75
2021/11/04 00:53:48;;;;;;;;;;;6.20;95.40;;;;;;5088144;28;20346;-75
2021/11/04 00:56:14;;;;;;;;;;;6.30;95.40;;;;;;5088166;28;19924;-76
2021/11/04 00:58:39;;;;;;;;;;;6.40;95.40;;;;;;5088161;28;19916;-74
2021/11/04 01:01:05;;;;;;;;;;;6.60;95.50;;;;;;5088226;28;19981;-75
2021/11/04 01:03:32;;;;;;;;;;;6.70;95.60;;;;;;5086981;28;19975;-75
2021/11/04 01:05:58;;;;;;;;;;;6.80;95.30;;;;;;5088163;28;19912;-75
2021/11/04 01:08:23;;;;;;;;;;;6.90;95.30;;;;;;5088011;28;19965;-76
2021/11/04 01:10:49;;;;;;;;;;;6.90;95.20;;;;;;5088181;28;19919;-76
2021/11/04 01:13:14;;;;;;;;;;;6.90;95.10;;;;;;5088053;28;20442;-75
2021/11/04 01:15:40;;;;;;;;;;;6.80;95.00;;;;;;5087875;28;20464;-77
2021/11/04 01:18:06;;;;;;;;;;;6.70;95.00;;;;;;5087005;28;19913;-76
2021/11/04 01:20:31;;;;;;;;;;;6.80;95.20;;;;;;5088106;28;19908;-75
2021/11/04 01:22:57;;;;;;;;;;;6.80;95.30;;;;;;5087919;28;19981;-77
2021/11/04 01:25:23;;;;;;;;;;;6.80;95.40;;;;;;5087955;28;19912;-75
2021/11/04 01:27:48;;;;;;;;;;;6.90;95.40;;;;;;5087919;28;20015;-75
2021/11/04 01:30:14;;;;;;;;;;;6.90;95.40;;;;;;5087945;28;20016;-78
2021/11/04 01:32:40;;;;;;;;;;;7.00;95.40;;;;;;5087961;28;19912;-77
2021/11/04 01:35:06;;;;;;;;;;;7.00;95.30;;;;;;5087997;28;19912;-75
2021/11/04 01:37:31;;;;;;;;;;;7.10;95.30;;;;;;5088260;28;19948;-75
2021/11/04 01:39:57;;;;;;;;;;;7.00;95.20;;;;;;5087821;28;19955;-75
2021/11/04 01:42:23;;;;;;;;;;;7.10;95.30;;;;;;5086535;28;19958;-76
2021/11/04 01:44:48;;;;;;;;;;;7.10;95.30;;;;;;5087687;28;19919;-76
2021/11/04 01:47:14;;;;;;;;;;;7.10;95.30;;;;;;5087759;28;20003;-77
2021/11/04 01:49:41;;;;;;;;;;;7.10;95.30;;;;;;5087879;28;19961;-75
2021/11/04 01:52:07;;;;;;;;;;;7.20;95.30;;;;;;5091552;28;19915;-76
2021/11/04 01:54:34;;;;;;;;;;;7.10;95.20;;;;;;5091407;28;19920;-74
2021/11/04 01:56:59;;;;;;;;;;;7.10;95.20;;;;;;5091407;28;20427;-74
2021/11/04 01:59:25;;;;;;;;;;;7.10;95.20;;;;;;5091445;28;19916;-75
2021/11/04 02:01:53;;;;;;;;;;;7.00;95.10;;;;;;5091342;28;19916;-74
2021/11/04 02:04:26;;;;;;;;;;;6.90;95.10;;;;;;5090035;28;20201;-75
2021/11/04 02:06:57;;;;;;;;;;;6.80;95.10;;;;;;5091163;28;20373;-75
2021/11/04 02:09:26;;;;;;;;;;;6.70;95.10;;;;;;5089970;28;19958;-75
2021/11/04 02:11:59;;;;;;;;;;;6.60;95.20;;;;;;5091186;28;19908;-76
2021/11/04 02:14:27;;;;;;;;;;;6.60;95.30;;;;;;5091128;28;19959;-77
2021/11/04 02:16:55;;;;;;;;;;;6.60;95.50;;;;;;5090998;28;19912;-75
2021/11/04 02:19:39;;;;;;;;;;;6.70;95.60;;;;;;5089777;28;19940;-75
2021/11/04 02:22:08;;;;;;;;;;;6.70;95.60;;;;;;5091144;28;19908;-78
2021/11/04 02:24:40;;;;;;;;;;;6.80;95.60;;;;;;5090850;28;19908;-76
2021/11/04 02:27:10;;;;;;;;;;;6.90;95.60;;;;;;5090742;28;19909;-75
2021/11/04 02:29:38;;;;;;;;;;;7.00;95.60;;;;;;5090854;28;19908;-78
2021/11/04 02:32:05;;;;;;;;;;;7.00;95.50;;;;;;5090690;28;20350;-75
2021/11/04 02:34:31;;;;;;;;;;;7.00;95.40;;;;;;5090719;28;19912;-76
2021/11/04 02:36:57;;;;;;;;;;;7.00;95.40;;;;;;5090476;28;20256;-76
2021/11/04 02:39:25;;;;;;;;;;;7.00;95.40;;;;;;5090735;28;19923;-75
2021/11/04 02:41:50;;;;;;;;;;;7.00;95.40;;;;;;5090477;28;20306;-74
2021/11/04 02:44:16;;;;;;;;;;;7.10;95.40;;;;;;5090458;28;19919;-76
2021/11/04 02:46:42;;;;;;;;;;;7.10;95.40;;;;;;5089080;28;19924;-75
2021/11/04 02:49:08;;;;;;;;;;;7.00;95.30;;;;;;5090398;28;20003;-76
2021/11/04 02:51:37;;;;;;;;;;;7.10;95.30;;;;;;5089145;28;19938;-76
2021/11/04 02:54:02;;;;;;;;;;;7.00;95.30;;;;;;5090417;28;19909;-77
2021/11/04 02:56:45;;;;;;;;;;;7.10;95.40;;;;;;5088896;28;19970;-76
2021/11/04 02:59:14;;;;;;;;;;;7.10;95.40;;;;;;5090217;28;19915;-74
2021/11/04 03:01:41;;;;;;;;;;;7.10;95.40;;;;;;5089698;28;19912;-75
2021/11/04 03:04:06;;;;;;;;;;;7.10;95.40;;;;;;5088801;28;19908;-75
2021/11/04 03:06:32;;;;;;;;;;;7.20;95.40;;;;;;5090178;28;20271;-74
2021/11/04 03:08:58;;;;;;;;;;;7.20;95.30;;;;;;5090028;28;19920;-74
2021/11/04 03:11:23;;;;;;;;;;;7.30;95.30;;;;;;5089961;28;19918;-76
2021/11/04 03:13:49;;;;;;;;;;;7.30;95.30;;;;;;5088612;28;19947;-77
2021/11/04 03:16:15;;;;;;;;;;;7.30;95.30;;;;;;5089778;28;19916;-74
2021/11/04 03:18:41;;;;;;;;;;;7.30;95.30;;;;;;5089973;28;19934;-76
2021/11/04 03:21:06;;;;;;;;;;;7.30;95.20;;;;;;5089853;28;19922;-75
2021/11/04 03:23:32;;;;;;;;;;;7.30;95.20;;;;;;5089707;28;19912;-76
2021/11/04 03:25:58;;;;;;;;;;;7.30;95.20;;;;;;5088339;28;20274;-77
2021/11/04 03:28:25;;;;;;;;;;;7.30;95.10;;;;;;5089697;28;19912;-76
2021/11/04 03:30:51;;;;;;;;;;;7.30;95.00;;;;;;5089584;28;19926;-75
2021/11/04 03:33:18;;;;;;;;;;;7.20;95.00;;;;;;5089483;28;20287;-78
2021/11/04 03:35:44;;;;;;;;;;;7.10;95.00;;;;;;5089652;28;19916;-77
2021/11/04 03:38:11;;;;;;;;;;;7.10;95.00;;;;;;5088232;28;19915;-75
2021/11/04 03:40:36;;;;;;;;;;;7.10;95.10;;;;;;5089483;28;19909;-74
2021/11/04 03:43:03;;;;;;;;;;;7.10;95.10;;;;;;5071247;28;20007;-76
2021/11/04 03:45:30;;;;;;;;;;;7.10;95.10;;;;;;5089102;28;19927;-75
2021/11/04 03:47:56;;;;;;;;;;;7.00;95.00;;;;;;5089162;28;19924;-76
2021/11/04 03:50:23;;;;;;;;;;;7.00;95.00;;;;;;5089189;28;19919;-76
2021/11/04 03:52:49;;;;;;;;;;;6.90;94.90;;;;;;5087869;28;19914;-76
2021/11/04 03:55:17;;;;;;;;;;;6.70;94.70;;;;;;5089034;28;20011;-76
2021/11/04 03:57:43;;;;;;;;;;;6.60;94.70;;;;;;5088981;28;20259;-74
2021/11/04 04:00:10;;;;;;;;;;;6.40;94.70;;;;;;5089124;28;19916;-76
2021/11/04 04:02:36;;;;;;;;;;;6.30;94.80;;;;;;5088998;28;19922;-77
2021/11/04 04:05:02;;;;;;;;;;;6.20;95.00;;;;;;5088984;28;20025;-75
2021/11/04 04:07:28;;;;;;;;;;;6.10;94.90;;;;;;5088910;28;19962;-75
2021/11/04 04:09:54;;;;;;;;;;;6.10;95.00;;;;;;5087816;28;19937;-76
2021/11/04 04:12:20;;;;;;;;;;;6.00;95.00;;;;;;5087090;28;19916;-75
2021/11/04 04:14:46;;;;;;;;;;;6.00;95.10;;;;;;5088610;28;19942;-76
2021/11/04 04:17:11;;;;;;;;;;;5.90;95.10;;;;;;5088700;28;20345;-75
2021/11/04 04:19:37;;;;;;;;;;;5.90;95.30;;;;;;5087504;28;20007;-77
2021/11/04 04:22:03;;;;;;;;;;;5.90;95.40;;;;;;5089153;28;19919;-76
2021/11/04 04:24:29;;;;;;;;;;;6.00;95.50;;;;;;5088648;28;19912;-76
2021/11/04 04:26:54;;;;;;;;;;;6.10;95.50;;;;;;5088576;28;19908;-75
2021/11/04 04:29:20;;;;;;;;;;;6.20;95.50;;;;;;5088589;28;20362;-77
2021/11/04 04:31:46;;;;;;;;;;;6.30;95.50;;;;;;5088552;28;19969;-76
2021/11/04 04:34:12;;;;;;;;;;;6.40;95.40;;;;;;5088694;28;19916;-75
2021/11/04 04:36:38;;;;;;;;;;;6.40;95.40;;;;;;5088152;28;20003;-74
2021/11/04 04:39:03;;;;;;;;;;;6.50;95.30;;;;;;5088341;28;20045;-75
2021/11/04 04:41:29;;;;;;;;;;;6.60;95.30;;;;;;5088379;28;20014;-73
2021/11/04 04:43:54;;;;;;;;;;;6.60;95.30;;;;;;5088338;28;19912;-75
2021/11/04 04:46:21;;;;;;;;;;;6.70;95.30;;;;;;5088086;28;19920;-73
2021/11/04 04:48:47;;;;;;;;;;;6.80;95.40;;;;;;5088428;28;19912;-74
2021/11/04 04:51:13;;;;;;;;;;;6.80;95.30;;;;;;5088328;28;20274;-73
2021/11/04 04:53:39;;;;;;;;;;;6.90;95.30;;;;;;5088074;28;20150;-77
2021/11/04 04:56:05;;;;;;;;;;;7.00;95.30;;;;;;5087718;28;19966;-75
2021/11/04 04:58:31;;;;;;;;;;;7.00;95.30;;;;;;5087872;28;19912;-78
2021/11/04 05:00:56;;;;;;;;;;;7.00;95.30;;;;;;5087929;28;19962;-75
2021/11/04 05:03:22;;;;;;;;;;;7.10;95.20;;;;;;5088179;28;19974;-75
2021/11/04 05:05:47;;;;;;;;;;;7.10;95.20;;;;;;5088069;28;19916;-78
2021/11/04 05:08:13;;;;;;;;;;;7.10;95.20;;;;;;5088187;28;20358;-75
2021/11/04 05:10:38;;;;;;;;;;;7.10;95.20;;;;;;5088141;28;19943;-76
2021/11/04 05:13:04;;;;;;;;;;;7.10;95.20;;;;;;5087249;28;20198;-75
2021/11/04 05:15:30;;;;;;;;;;;7.10;95.20;;;;;;5087932;28;19927;-77
2021/11/04 05:17:55;;;;;;;;;;;7.10;95.20;;;;;;5088032;28;19927;-75
2021/11/04 05:20:21;;;;;;;;;;;7.00;95.20;;;;;;5088060;28;19916;-75
2021/11/04 05:22:46;;;;;;;;;;;7.10;95.30;;;;;;5086695;28;19919;-74
2021/11/04 05:25:12;;;;;;;;;;;7.10;95.30;;;;;;5090677;28;20271;-76
2021/11/04 05:27:38;;;;;;;;;;;7.10;95.30;;;;;;5092001;28;19961;-74
2021/11/04 05:30:04;;;;;;;;;;;7.10;95.30;;;;;;5091918;28;19916;-77
2021/11/04 05:32:30;;;;;;;;;;;7.20;95.30;;;;;;5090511;28;19926;-74
2021/11/04 05:34:56;;;;;;;;;;;7.10;95.30;;;;;;5091901;28;19969;-74
2021/11/04 05:37:21;;;;;;;;;;;7.20;95.30;;;;;;5091493;28;19912;-78
2021/11/04 05:39:47;;;;;;;;;;;7.20;95.30;;;;;;5090350;28;19915;-74
2021/11/04 05:42:12;;;;;;;;;;;7.20;95.30;;;;;;5091782;28;20325;-77
2021/11/04 05:44:38;;;;;;;;;;;7.20;95.30;;;;;;5091684;28;19908;-74
2021/11/04 05:47:04;;;;;;;;;;;7.20;95.30;;;;;;5091530;28;19912;-77
2021/11/04 05:49:30;;;;;;;;;;;7.30;95.30;;;;;;5091704;28;19916;-76
2021/11/04 05:51:55;;;;;;;;;;;7.20;95.20;;;;;;5091455;28;20285;-76
2021/11/04 05:54:21;;;;;;;;;;;7.20;95.20;;;;;;5091486;28;19916;-75
2021/11/04 05:56:46;;;;;;;;;;;7.20;95.20;;;;;;5090343;28;19923;-77
2021/11/04 05:59:12;;;;;;;;;;;7.20;95.20;;;;;;5090386;28;19915;-75
2021/11/04 06:01:37;;;;;;;;;;;7.20;95.20;;;;;;5091416;28;20373;-77
2021/11/04 06:04:03;;;;;;;;;;;7.20;95.30;;;;;;5090196;28;19922;-75
2021/11/04 06:06:29;;;;;;;;;;;7.20;95.30;;;;;;5091298;28;19917;-74
2021/11/04 06:08:55;;;;;;;;;;;7.20;95.30;;;;;;5091126;28;19927;-75
2021/11/04 06:11:20;;;;;;;;;;;7.20;95.30;;;;;;5089868;28;19912;-78
2021/11/04 06:13:46;;;;;;;;;;;7.20;95.30;;;;;;5091245;28;19913;-76
2021/11/04 06:16:14;;;;;;;;;;;7.20;95.30;;;;;;5091034;28;19998;-76
2021/11/04 06:18:40;;;;;;;;;;;7.30;95.30;;;;;;5089796;28;19935;-77
2021/11/04 06:21:06;;;;;;;;;;;7.30;95.40;;;;;;5090981;28;19934;-75
2021/11/04 06:23:32;;;;;;;;;;;7.30;95.40;;;;;;5089533;28;19922;-78
2021/11/04 06:25:57;;;;;;;;;;;7.30;95.30;;;;;;5091001;28;19916;-76
2021/11/04 06:28:23;;;;;;;;;;;7.30;95.30;;;;;;5090692;28;20354;-78
2021/11/04 06:30:48;;;;;;;;;;;7.30;95.20;;;;;;5089275;28;20110;-76
2021/11/04 06:33:14;;;;;;;;;;;7.30;95.20;;;;;;5089067;28;19912;-76
2021/11/04 06:35:39;;;;;;;;;;;7.30;95.20;;;;;;5089777;28;19912;-75
2021/11/04 06:38:06;;;;;;;;;;;7.30;95.30;;;;;;5089229;28;19908;-75
2021/11/04 06:40:31;;;;;;;;;;;7.30;95.30;;;;;;5090511;28;19919;-75
2021/11/04 06:42:57;;;;;;;;;;;7.30;95.30;;;;;;5090425;28;19916;-76
2021/11/04 06:45:23;;;;;;;;;;;7.30;95.20;;;;;;5090357;28;20263;-76
2021/11/04 06:47:50;;;;;;;;;;;7.30;95.30;;;;;;5090231;28;20366;-77
2021/11/04 06:50:17;;;;;;;;;;;7.20;95.30;;;;;;5090293;28;19909;-76
2021/11/04 06:52:54;;;;;;;;;;;7.30;95.30;;;;;;5088890;28;19944;-77
2021/11/04 06:55:24;;;;;;;;;;;7.30;95.30;;;;;;5089133;28;19912;-75
2021/11/04 06:57:52;;;;;;;;;;;7.30;95.30;;;;;;5090506;28;19908;-77
2021/11/04 07:00:17;;;;;;;;;;;7.30;95.30;;;;;;5088950;28;20496;-76
2021/11/04 07:02:48;;;;;;;;;;;7.30;95.30;;;;;;5090280;28;19919;-77
2021/11/04 07:05:13;;;;;;;;;;;7.30;95.20;;;;;;5088582;28;20020;-76
2021/11/04 07:07:45;;;;;;;;;;;7.30;95.20;;;;;;5089956;28;20378;-73
2021/11/04 07:10:11;;;;;;;;;;;7.30;95.10;;;;;;5089469;28;19912;-73
2021/11/04 07:12:41;;;;;;;;;;;7.30;95.10;;;;;;5089845;28;19915;-76
2021/11/04 07:15:06;;;;;;;;;;;7.30;95.10;;;;;;5088451;28;20020;-74
2021/11/04 07:17:33;;;;;;;;;;;7.30;95.20;;;;;;5089707;28;19955;-75
2021/11/04 07:19:59;;;;;;;;;;;7.30;95.20;;;;;;5088714;28;19923;-77
2021/11/04 07:22:40;;;;;;;;;;;7.30;95.40;;;;;;5089299;28;19908;-76
2021/11/04 07:25:13;;;;;;;;;;;7.30;95.20;;;;;;5087927;28;20358;-77
2021/11/04 07:27:50;;;;;;;;;;;7.30;95.20;;;;;;5089844;28;19919;-75
2021/11/04 07:30:18;;;;;;;;;;;7.30;95.10;;;;;;5089284;28;19913;-75
2021/11/04 07:32:54;;;;;;;;;;;7.30;95.10;;;;;;5089504;28;19916;-74
2021/11/04 07:35:24;;;;;;;;;;;7.30;95.00;;;;;;5089280;28;19916;-75
2021/11/04 07:37:50;;;;;;;;;;;7.30;95.10;;;;;;5087874;28;19915;-77
2021/11/04 07:40:17;;;;;;;;;;;7.30;95.10;;;;;;5089706;28;19908;-74
2021/11/04 07:42:42;;;;;;;;;;;7.30;95.10;;;;;;5089505;28;19908;-76
2021/11/04 07:45:09;;;;;;;;;;;7.30;95.00;;;;;;5089390;28;20266;-76
2021/11/04 07:47:35;;;;;;;;;;;7.30;95.00;;;;;;5088230;28;19934;-77
2021/11/04 07:50:01;;;;;;;;;;;7.30;94.90;;;;;;5089201;28;19927;-76
2021/11/04 07:52:27;;;;;;;;;;;7.30;94.90;;;;;;5087855;28;20006;-75
2021/11/04 07:54:52;;;;;;;;;;;7.30;95.00;;;;;;5087592;28;19919;-75
2021/11/04 07:57:18;;;;;;;;;;;7.30;95.00;;;;;;5087876;28;19923;-74
2021/11/04 07:59:43;;;;;;;;;;;7.30;95.00;;;;;;5088337;28;20293;-76
2021/11/04 08:02:09;;;;;;;;;;;7.30;95.00;;;;;;5087703;28;19912;-76
2021/11/04 08:04:34;;;;;;;;;;;7.40;95.00;;;;;;5089128;28;20393;-76
2021/11/04 08:07:00;;;;;;;;;;;7.40;94.90;;;;;;5089061;28;20127;-75
2021/11/04 08:09:26;;;;;;;;;;;7.40;94.80;;;;;;5087859;28;19912;-75
2021/11/04 08:11:51;;;;;;;;;;;7.40;94.80;;;;;;5088646;28;20216;-75
2021/11/04 08:14:17;;;;;;;;;;;7.50;94.80;;;;;;5088674;28;20393;-77
2021/11/04 08:16:42;;;;;;;;;;;7.50;94.70;;;;;;5088499;28;19966;-75
2021/11/04 08:19:08;;;;;;;;;;;7.50;94.70;;;;;;5088743;28;19915;-75
2021/11/04 08:21:34;;;;;;;;;;;7.50;94.70;;;;;;5088663;28;19925;-73
2021/11/04 08:23:59;;;;;;;;;;;7.50;94.70;;;;;;5088336;28;19916;-75
2021/11/04 08:26:25;;;;;;;;;;;7.50;94.60;;;;;;5086992;28;19936;-75
2021/11/04 08:28:52;;;;;;;;;;;7.50;94.60;;;;;;5087110;28;20438;-75
2021/11/04 08:31:18;;;;;;;;;;;7.40;94.50;;;;;;5088601;28;19985;-76
2021/11/04 08:33:43;;;;;;;;;;;7.30;94.50;;;;;;5087987;28;20289;-76
2021/11/04 08:36:09;;;;;;;;;;;7.20;94.80;;;;;;5088010;28;19916;-77
2021/11/04 08:38:35;;;;;;;;;;;7.20;94.70;;;;;;5087110;28;20445;-76
2021/11/04 08:41:00;;;;;;;;;;;7.20;94.60;;;;;;5088253;28;19950;-79
2021/11/04 08:43:26;;;;;;;;;;;7.20;94.50;;;;;;5088068;28;20032;-77
2021/11/04 08:45:51;;;;;;;;;;;7.10;94.50;;;;;;5087708;28;20402;-76
2021/11/04 08:48:19;;;;;;;;;;;7.00;94.50;;;;;;5087898;28;20349;-74
2021/11/04 08:50:45;;;;;;;;;;;7.10;94.70;;;;;;5087683;28;19923;-78
2021/11/04 08:53:11;;;;;;;;;;;7.10;94.80;;;;;;5087316;28;20403;-76
2021/11/04 08:55:37;;;;;;;;;;;7.20;94.90;;;;;;5087432;28;19947;-78
2021/11/04 08:58:02;;;;;;;;;;;7.30;94.90;;;;;;5087930;28;19913;-77
2021/11/04 09:00:28;;;;;;;;;;;7.40;95.00;;;;;;5085538;28;20316;-77
2021/11/04 09:02:54;;;;;;;;;;;7.60;95.10;;;;;;5086844;28;19912;-75
2021/11/04 09:05:19;;;;;;;;;;;7.90;95.30;;;;;;5087406;28;19916;-75
2021/11/04 09:07:45;;;;;;;;;;;8.30;95.50;;;;;;5086811;28;20369;-77
2021/11/04 09:10:12;;;;;;;;;;;8.50;95.20;;;;;;5086999;28;19996;-76
2021/11/04 09:12:38;;;;;;;;;;;8.60;94.70;;;;;;5086801;28;19924;-75
2021/11/04 09:15:04;;;;;;;;;;;8.50;94.30;;;;;;5084493;28;20292;-77
2021/11/04 09:17:29;;;;;;;;;;;8.40;94.10;;;;;;5087251;28;19908;-78
2021/11/04 09:19:55;;;;;;;;;;;8.60;95.00;;;;;;5087392;28;20396;-77
2021/11/04 09:22:21;;;;;;;;;;;9.20;95.40;;;;;;5086848;28;19916;-77
2021/11/04 09:24:47;;;;;;;;;;;9.90;95.10;;;;;;5086769;28;19927;-76
2021/11/04 09:27:13;;;;;;;;;;;10.20;94.40;;;;;;5087011;28;19940;-76
2021/11/04 09:29:39;;;;;;;;;;;10.30;93.80;;;;;;5085397;28;19931;-77
2021/11/04 09:32:06;;;;;;;;;;;10.20;93.70;;;;;;5086676;28;20003;-77
2021/11/04 09:34:32;;;;;;;;;;;10.30;94.20;;;;;;5086802;28;19916;-76
2021/11/04 09:36:58;;;;;;;;;;;10.80;95.30;;;;;;5086774;28;20305;-75
2021/11/04 09:39:23;;;;;;;;;;;11.90;96.20;;;;;;5086429;28;19916;-76
2021/11/04 09:41:49;;;;;;;;;;;13.00;96.40;;;;;;5085556;28;20309;-74
2021/11/04 09:44:17;;;;;;;;;;;14.10;95.80;;;;;;5085575;28;19912;-75
2021/11/04 09:46:43;;;;;;;;;;;15.00;95.50;;;;;;5086562;28;20216;-76
2021/11/04 09:49:10;;;;;;;;;;;15.80;94.80;;;;;;5089424;28;19916;-74
2021/11/04 09:51:36;;;;;;;;;;;16.40;94.50;;;;;;5093741;28;20366;-76
2021/11/04 09:54:03;;;;;;;;;;;17.10;94.20;;;;;;5097114;28;19908;-76
2021/11/04 09:56:29;;;;;;;;;;;17.50;93.80;;;;;;5098181;28;19924;-75
2021/11/04 09:58:54;;;;;;;;;;;17.50;92.60;;;;;;5097294;28;19961;-75
2021/11/04 10:01:24;;;;;;;;;;;17.50;92.90;;;;;;5096028;28;19908;-74
2021/11/04 10:03:50;;;;;;;;;;;17.90;93.50;;;;;;5098118;28;19920;-74
2021/11/04 10:06:19;;;;;;;;;;;18.30;93.80;;;;;;5101993;28;19912;-75
2021/11/04 10:08:48;;;;;;;;;;;18.80;93.90;;;;;;5096067;28;19913;-74
2021/11/04 10:11:14;;;;;;;;;;;19.10;93.60;;;;;;5097648;28;19916;-74
2021/11/04 10:13:40;;;;;;;;;;;19.40;93.60;;;;;;5099939;28;19913;-75
2021/11/04 10:16:09;;;;;;;;;;;19.70;93.40;;;;;;5089964;28;20400;-75
2021/11/04 10:18:39;;;;;;;;;;;19.90;93.00;;;;;;5098787;28;19957;-76
2021/11/04 10:21:05;;;;;;;;;;;20.10;92.80;;;;;;5096055;28;19908;-76
2021/11/04 10:23:41;;;;;;;;;;;20.30;92.20;;;;;;5105802;28;19915;-76
2021/11/04 10:26:11;;;;;;;;;;;20.40;91.70;;;;;;5102441;28;19954;-75
2021/11/04 10:28:38;;;;;;;;;;;20.40;92.20;;;;;;5102235;28;20277;-73
2021/11/04 10:31:05;;;;;;;;;;;20.30;93.00;;;;;;5102941;28;19908;-75
2021/11/04 10:33:35;;;;;;;;;;;20.60;93.40;;;;;;5101824;28;19915;-75
2021/11/04 10:36:04;;;;;;;;;;;20.90;93.50;;;;;;5101035;28;19934;-75
2021/11/04 10:38:31;;;;;;;;;;;21.00;93.20;;;;;;5098422;28;20003;-76
2021/11/04 10:40:57;;;;;;;;;;;21.20;92.70;;;;;;5105576;28;19912;-75
2021/11/04 10:43:22;;;;;;;;;;;21.40;92.70;;;;;;5102464;28;19912;-75
2021/11/04 10:45:58;;;;;;;;;;;21.60;92.10;;;;;;5101957;28;19933;-73
2021/11/04 10:48:23;;;;;;;;;;;21.70;92.10;;;;;;5103617;28;19923;-75
2021/11/04 10:50:49;;;;;;;;;;;21.60;92.10;;;;;;5097539;28;19912;-75
2021/11/04 10:53:20;;;;;;;;;;;21.20;91.90;;;;;;5104324;28;20390;-75
2021/11/04 10:55:47;;;;;;;;;;;21.10;92.30;;;;;;5099567;28;19912;-75
2021/11/04 10:58:26;;;;;;;;;;;20.90;92.60;;;;;;5104484;28;19908;-77
2021/11/04 11:00:51;;;;;;;;;;;20.90;92.70;;;;;;5096127;28;20418;-76
2021/11/04 11:03:17;;;;;;;;;;;20.90;92.90;;;;;;5101125;28;19912;-76
2021/11/04 11:05:43;;;;;;;;;;;21.00;92.90;;;;;;5096862;28;20376;-74
2021/11/04 11:08:12;;;;;;;;;;;21.30;92.90;;;;;;5101721;28;19968;-74
2021/11/04 11:10:39;;;;;;;;;;;21.50;92.30;;;;;;5101499;28;19912;-76
2021/11/04 11:13:05;;;;;;;;;;;21.70;91.30;;;;;;5095317;28;20010;-78
2021/11/04 11:15:36;;;;;;;;;;;21.80;91.00;;;;;;5098901;28;20485;-76
2021/11/04 11:18:04;;;;;;;;;;;21.80;91.20;;;;;;5101766;28;19915;-74
2021/11/04 11:20:30;;;;;;;;;;;21.70;91.40;;;;;;5102444;28;19912;-75
2021/11/04 11:22:56;;;;;;;;;;;21.60;91.30;;;;;;5101166;28;20270;-76
2021/11/04 11:25:21;;;;;;;;;;;21.60;90.60;;;;;;5101448;28;19912;-74
2021/11/04 11:27:49;;;;;;;;;;;21.80;89.90;;;;;;5100874;28;20022;-76
2021/11/04 11:30:15;;;;;;;;;;;21.90;90.20;;;;;;5089409;28;19923;-76
2021/11/04 11:32:42;;;;;;;;;;;21.80;90.60;;;;;;5102121;28;20292;-76
2021/11/04 11:35:19;;;;;;;;;;;21.80;90.40;;;;;;5104537;28;19920;-76
2021/11/04 11:38:00;;;;;;;;;;;21.80;90.00;;;;;;5094086;28;19909;-78
2021/11/04 11:40:27;;;;;;;;;;;21.60;90.10;;;;;;5096108;28;19921;-75
2021/11/04 11:42:53;;;;;;;;;;;21.70;90.00;;;;;;5104741;28;19931;-75
2021/11/04 11:45:19;;;;;;;;;;;21.60;90.00;;;;;;5099166;28;19915;-74
2021/11/04 11:47:46;;;;;;;;;;;21.40;89.70;;;;;;5107822;28;20018;-77
2021/11/04 11:50:32;;;;;;;;;;;21.30;89.70;;;;;;5095333;28;19945;-76
2021/11/04 11:53:18;;;;;;;;;;;21.20;89.20;;;;;;5093464;28;19935;-76
2021/11/04 11:55:47;;;;;;;;;;;21.00;87.20;;;;;;5092264;28;19934;-78
2021/11/04 11:58:14;;;;;;;;;;;20.70;88.20;;;;;;5095905;28;19908;-77
2021/11/04 12:00:58;;;;;;;;;;;20.40;87.50;;;;;;5092739;28;19943;-78
2021/11/04 12:03:44;;;;;;;;;;;20.00;87.50;;;;;;5098027;28;19908;-78
2021/11/04 12:06:13;;;;;;;;;;;19.60;87.90;;;;;;5092868;28;19916;-76
2021/11/04 12:08:39;;;;;;;;;;;19.60;88.80;;;;;;5088817;28;20007;-74
2021/11/04 12:11:06;;;;;;;;;;;19.70;88.10;;;;;;5088782;28;19953;-77
2021/11/04 12:13:38;;;;;;;;;;;19.80;87.40;;;;;;5089186;28;19985;-74
2021/11/04 12:16:12;;;;;;;;;;;19.80;87.20;;;;;;5087554;28;19912;-75
2021/11/04 12:18:58;;;;;;;;;;;19.90;87.00;;;;;;5086386;28;19924;-75
2021/11/04 12:21:37;;;;;;;;;;;19.90;85.80;;;;;;5089292;28;20007;-73
2021/11/04 12:24:04;;;;;;;;;;;19.70;84.60;;;;;;5085784;28;19910;-72
2021/11/04 12:26:31;;;;;;;;;;;19.20;82.90;;;;;;5089289;28;19908;-76
2021/11/04 12:28:57;;;;;;;;;;;18.70;81.70;;;;;;5089502;28;19911;-76
2021/11/04 12:31:24;;;;;;;;;;;18.20;82.20;;;;;;5089613;28;20240;-74
2021/11/04 12:33:54;;;;;;;;;;;17.70;82.40;;;;;;5088348;28;19919;-76
2021/11/04 12:36:35;;;;;;;;;;;17.20;82.00;;;;;;5089187;28;19926;-74
2021/11/04 12:39:04;;;;;;;;;;;16.80;81.40;;;;;;5089600;28;19912;-76
2021/11/04 12:41:29;;;;;;;;;;;16.30;81.40;;;;;;5089645;28;19908;-76
2021/11/04 12:44:03;;;;;;;;;;;16.00;81.40;;;;;;5088829;28;19912;-78
2021/11/04 12:46:30;;;;;;;;;;;15.80;81.50;;;;;;5087917;28;19912;-77
2021/11/04 12:48:57;;;;;;;;;;;15.50;80.00;;;;;;5089162;28;19948;-75
2021/11/04 12:51:27;;;;;;;;;;;15.20;80.10;;;;;;5089064;28;20309;-77
2021/11/04 12:53:53;;;;;;;;;;;14.80;79.90;;;;;;5089086;28;19969;-71
2021/11/04 12:56:19;;;;;;;;;;;14.60;80.20;;;;;;5088180;28;20327;-77
2021/11/04 12:58:50;;;;;;;;;;;14.50;80.60;;;;;;5090042;28;19908;-77
2021/11/04 13:01:15;;;;;;;;;;;14.60;81.30;;;;;;5087981;28;19970;-77
2021/11/04 13:03:41;;;;;;;;;;;14.70;80.60;;;;;;5089225;28;19951;-77
2021/11/04 13:06:07;;;;;;;;;;;14.80;81.50;;;;;;5087628;28;20041;-76
2021/11/04 13:08:33;;;;;;;;;;;15.20;80.50;;;;;;5088361;28;19947;-79
2021/11/04 13:11:01;;;;;;;;;;;15.40;80.40;;;;;;5089262;28;19925;-76
2021/11/04 13:13:27;;;;;;;;;;;15.60;80.00;;;;;;5088569;28;20604;-77
2021/11/04 13:15:53;;;;;;;;;;;15.70;79.70;;;;;;5088050;28;19923;-75
2021/11/04 13:18:19;;;;;;;;;;;15.60;79.70;;;;;;5088879;28;19921;-75
2021/11/04 13:20:51;;;;;;;;;;;15.50;79.70;;;;;;5087617;28;19918;-76
2021/11/04 13:23:27;;;;;;;;;;;15.30;79.70;;;;;;5089323;28;20336;-79
2021/11/04 13:25:57;;;;;;;;;;;15.00;79.00;;;;;;5087742;28;19908;-75
2021/11/04 13:28:26;;;;;;;;;;;14.70;79.10;;;;;;5088751;28;20038;-77
2021/11/04 13:30:53;;;;;;;;;;;14.50;79.50;;;;;;5089101;28;20590;-74
2021/11/04 13:33:19;;;;;;;;;;;14.40;79.60;;;;;;5087607;28;19915;-76
2021/11/04 13:35:46;;;;;;;;;;;14.30;79.50;;;;;;5088674;28;21352;-77
2021/11/04 13:38:13;;;;;;;;;;;14.20;79.30;;;;;;5087777;28;19908;-73
2021/11/04 13:40:40;;;;;;;;;;;14.20;79.20;;;;;;5088850;28;20581;-75
2021/11/04 13:43:06;;;;;;;;;;;14.20;79.60;;;;;;5088866;28;19992;-78
2021/11/04 13:45:32;;;;;;;;;;;14.30;79.60;;;;;;5090422;28;20019;-79
2021/11/04 13:47:59;;;;;;;;;;;14.40;79.70;;;;;;5092633;28;19932;-76
2021/11/04 13:50:34;;;;;;;;;;;14.50;79.50;;;;;;5092802;28;19908;-78
2021/11/04 13:53:10;;;;;;;;;;;14.40;78.30;;;;;;5092936;28;19908;-78
2021/11/04 13:55:36;;;;;;;;;;;14.30;78.20;;;;;;5092956;28;19927;-76
2021/11/04 13:58:02;;;;;;;;;;;14.30;78.30;;;;;;5092777;28;19908;-73
2021/11/04 14:00:28;;;;;;;;;;;14.20;78.10;;;;;;5091680;28;20331;-76
2021/11/04 14:02:55;;;;;;;;;;;14.00;78.00;;;;;;5090715;28;19919;-77
2021/11/04 14:05:21;;;;;;;;;;;13.70;77.90;;;;;;5092628;28;19930;-76
2021/11/04 14:07:47;;;;;;;;;;;13.40;78.00;;;;;;5091104;28;20258;-75
2021/11/04 14:10:14;;;;;;;;;;;13.30;78.50;;;;;;5092830;28;19912;-75
2021/11/04 14:12:41;;;;;;;;;;;13.20;78.40;;;;;;5092948;28;20328;-78
2021/11/04 14:15:10;;;;;;;;;;;13.10;78.40;;;;;;5091907;28;19909;-73
2021/11/04 14:18:02;;;;;;;;;;;13.10;78.60;;;;;;5091976;28;19999;-74
2021/11/04 14:20:31;;;;;;;;;;;13.10;78.50;;;;;;5085845;28;19912;-75
2021/11/04 14:22:57;;;;;;;;;;;13.00;78.40;;;;;;5092084;28;19912;-74
2021/11/04 14:25:23;;;;;;;;;;;13.00;78.40;;;;;;5092581;28;19940;-76